METAR Data
IDs: Format: Raw Decoded Include TAF

Data at: 0303 UTC 23 Apr 2021

YABA 230200Z AUTO 00000KT 9999 // NCD 15/14 Q1023
YABA 230100Z AUTO 00000KT 9999 // NCD 14/13 Q1023
YABA 230000Z AUTO 00000KT 9999 // NCD 12/12 Q1023
YABA 222300Z AUTO 00000KT 9999 // NCD 11/10 Q1023
YABA 222200Z AUTO 00000KT 9999 // NCD 11/11 Q1023
YABA 222100Z AUTO 04003KT 9999 // NCD 11/11 Q1022
YABA 222000Z AUTO 04003KT 9999 // NCD 11/11 Q1022
YABA 221900Z AUTO 04003KT 9999 // NCD 12/12 Q1023
YABA 221800Z AUTO 06003KT 9999 // NCD 12/11 Q1023
YABA 221700Z AUTO 04003KT 9999 // NCD 11/11 Q1024
YABA 221630Z AUTO 04003KT 1900 // NCD 11/11 Q1024
YABA 221620Z AUTO 02004KT 6000 // NCD 11/11 Q1024
YABA 221600Z AUTO 01005KT 9999 // NCD 11/11 Q1024
YABA 221500Z AUTO 03005KT 9999 // NCD 11/11 Q1024
YABA 221400Z AUTO 03004KT 9999 // NCD 12/12 Q1024
YABA 221300Z AUTO 03005KT 9999 // SCT020 13/12 Q1025
YABA 221200Z AUTO 08004KT 9999 // NCD 14/13 Q1024
YABA 221100Z AUTO 12004KT 9999 // NCD 14/13 Q1024
YABA 221000Z AUTO 11005KT 9999 // NCD 15/12 Q1024
YABA 220900Z AUTO 11006KT 9999 // NCD 17/13 Q1024
YABA 220800Z AUTO 11006KT 9999 // BKN046 18/12 Q1024
YABA 220700Z AUTO 13006KT 9999 // OVC044 18/13 Q1024
YABA 220600Z AUTO 07003KT 9999 // OVC036 18/11 Q1024
YABA 220500Z AUTO 03005KT 010V090 9999 // SCT025 OVC038 18/12 Q1024
YABA 220400Z AUTO 14005KT 9999 // OVC038 18/12 Q1025
YABA 220300Z AUTO 18001KT 9999 // OVC038 18/12 Q1026
YABA 220200Z AUTO 07002KT 9999 // OVC040 16/10 Q1027
YABA 220100Z AUTO 35002KT 9999 // OVC040 14/12 Q1027
YABA 220000Z AUTO 26001KT 9999 // OVC036 12/11 Q1026
YABA 212300Z AUTO 00000KT 9999 // OVC038 10/10 Q1026
YABA 212200Z AUTO 27003KT 9999 // OVC040 10/09 Q1026
YABA 212100Z AUTO 27004KT 9999 // OVC038 10/09 Q1026
YABA 212000Z AUTO 01005KT 9999 // BKN034 08/08 Q1025
YABA 211900Z AUTO 00000KT 9999 // NCD 10/09 Q1025
YABA 211800Z AUTO 07003KT 9999 // NCD 10/09 Q1026
YABA 211700Z AUTO 00000KT 9999 // OVC037 13/11 Q1026
YABA 211600Z AUTO 00000KT 9999 // OVC037 14/11 Q1026